Time;durP1;ratioP1;P1;durP2;ratioP2;P2;SDS_P1;SDS_P2;PMS_P1;PMS_P2;Temp;Humidity;BMP_temperature;BMP_pressure;BME280_temperature;BME280_humidity;BME280_pressure;Samples;Min_cycle;Max_cycle;Signal;HPM_P1;HPM_P2
2023/12/13 00:02:08;;;;;;;;;;;7.70;99.90;;;;;;5109843;27;19919;-69
2023/12/13 00:04:34;;;;;;;;;;;7.70;99.90;;;;;;5123192;27;19957;-69
2023/12/13 00:06:59;;;;;;;;;;;7.70;99.90;;;;;;5116318;27;19912;-69
2023/12/13 00:09:25;;;;;;;;;;;7.70;99.90;;;;;;5106825;27;19916;-69
2023/12/13 00:11:50;;;;;;;;;;;7.70;99.90;;;;;;5107842;28;19912;-69
2023/12/13 00:14:17;;;;;;;;;;;7.70;99.90;;;;;;5107506;28;20352;-69
2023/12/13 00:16:43;;;;;;;;;;;7.70;99.90;;;;;;5105828;27;19920;-69
2023/12/13 00:19:08;;;;;;;;;;;7.70;99.90;;;;;;5107459;27;19912;-69
2023/12/13 00:21:34;;;;;;;;;;;7.70;99.90;;;;;;5107408;28;20011;-69
2023/12/13 00:23:59;;;;;;;;;;;7.70;99.90;;;;;;5107708;28;20040;-69
2023/12/13 00:26:25;;;;;;;;;;;7.70;99.90;;;;;;5106399;28;19912;-69
2023/12/13 00:28:50;;;;;;;;;;;7.70;99.90;;;;;;5107212;28;19916;-69
2023/12/13 00:31:16;;;;;;;;;;;7.70;99.90;;;;;;5105634;28;19916;-69
2023/12/13 00:33:42;;;;;;;;;;;7.70;99.90;;;;;;5107418;28;19954;-69
2023/12/13 00:36:08;;;;;;;;;;;7.70;99.90;;;;;;5104882;28;19916;-69
2023/12/13 00:38:33;;;;;;;;;;;7.70;99.90;;;;;;5107316;27;19919;-69
2023/12/13 00:40:59;;;;;;;;;;;7.70;99.90;;;;;;5106939;27;19992;-68
2023/12/13 00:43:24;;;;;;;;;;;7.70;99.90;;;;;;5107556;28;19994;-69
2023/12/13 00:45:50;;;;;;;;;;;7.70;99.90;;;;;;5107076;28;20400;-69
2023/12/13 00:48:15;;;;;;;;;;;7.70;99.90;;;;;;5126920;27;19931;-69
2023/12/13 00:50:41;;;;;;;;;;;7.60;99.90;;;;;;5121508;27;20013;-69
2023/12/13 00:53:07;;;;;;;;;;;7.70;99.90;;;;;;5127369;27;19907;-69
2023/12/13 00:55:32;;;;;;;;;;;7.70;99.90;;;;;;5121933;27;20281;-69
2023/12/13 00:57:58;;;;;;;;;;;7.70;99.90;;;;;;5105204;28;19918;-69
2023/12/13 01:00:24;;;;;;;;;;;7.60;99.90;;;;;;5106696;28;19920;-69
2023/12/13 01:02:49;;;;;;;;;;;7.60;99.90;;;;;;5106742;28;19919;-69
2023/12/13 01:05:15;;;;;;;;;;;7.60;99.90;;;;;;5104772;28;19916;-69
2023/12/13 01:07:40;;;;;;;;;;;7.60;99.90;;;;;;5105522;28;19953;-69
2023/12/13 01:10:06;;;;;;;;;;;7.60;99.90;;;;;;5106442;28;19916;-69
2023/12/13 01:12:32;;;;;;;;;;;7.60;99.90;;;;;;5112019;27;20710;-69
2023/12/13 01:14:57;;;;;;;;;;;7.60;99.90;;;;;;5126548;27;19934;-69
2023/12/13 01:17:23;;;;;;;;;;;7.60;99.90;;;;;;5115040;27;20320;-69
2023/12/13 01:19:50;;;;;;;;;;;7.60;99.90;;;;;;5113978;27;19911;-69
2023/12/13 01:22:15;;;;;;;;;;;7.60;99.90;;;;;;5122990;27;21104;-69
2023/12/13 01:24:41;;;;;;;;;;;7.60;99.90;;;;;;5104819;28;19912;-69
2023/12/13 01:27:06;;;;;;;;;;;7.60;99.90;;;;;;5105674;28;19919;-69
2023/12/13 01:29:32;;;;;;;;;;;7.50;99.90;;;;;;5104093;28;20292;-69
2023/12/13 01:31:57;;;;;;;;;;;7.50;99.90;;;;;;5105845;28;20428;-69
2023/12/13 01:34:23;;;;;;;;;;;7.50;99.90;;;;;;5106284;28;20006;-69
2023/12/13 01:36:48;;;;;;;;;;;7.50;99.90;;;;;;5113337;27;19923;-69
2023/12/13 01:39:15;;;;;;;;;;;7.50;99.90;;;;;;5125637;27;19911;-69
2023/12/13 01:41:41;;;;;;;;;;;7.50;99.90;;;;;;5126684;27;19912;-69
2023/12/13 01:44:06;;;;;;;;;;;7.50;99.90;;;;;;5107818;27;19920;-69
2023/12/13 01:46:32;;;;;;;;;;;7.50;99.90;;;;;;5119504;27;20066;-69
2023/12/13 01:48:57;;;;;;;;;;;7.50;99.90;;;;;;5107150;27;19927;-68
2023/12/13 01:51:23;;;;;;;;;;;7.50;99.90;;;;;;5110326;27;20463;-69
2023/12/13 01:53:49;;;;;;;;;;;7.50;99.90;;;;;;5106115;28;19915;-69
2023/12/13 01:56:14;;;;;;;;;;;7.50;99.90;;;;;;5105323;28;20549;-69
2023/12/13 01:58:40;;;;;;;;;;;7.50;99.90;;;;;;5105830;28;19923;-69
2023/12/13 02:01:07;;;;;;;;;;;7.50;99.90;;;;;;5105632;27;19912;-69
2023/12/13 02:03:33;;;;;;;;;;;7.50;99.90;;;;;;5105919;28;19965;-69
2023/12/13 02:06:00;;;;;;;;;;;7.50;99.90;;;;;;5105511;28;19922;-69
2023/12/13 02:08:26;;;;;;;;;;;7.50;99.90;;;;;;5106162;28;19950;-69
2023/12/13 02:10:51;;;;;;;;;;;7.50;99.90;;;;;;5105941;28;20035;-69
2023/12/13 02:13:17;;;;;;;;;;;7.50;99.90;;;;;;5105935;28;19935;-69
2023/12/13 02:15:43;;;;;;;;;;;7.50;99.90;;;;;;5103748;28;19915;-69
2023/12/13 02:18:09;;;;;;;;;;;7.50;99.90;;;;;;5105305;28;19992;-69
2023/12/13 02:20:35;;;;;;;;;;;7.50;99.90;;;;;;5105700;27;19955;-69
2023/12/13 02:23:00;;;;;;;;;;;7.50;99.90;;;;;;5105515;28;19922;-69
2023/12/13 02:25:32;;;;;;;;;;;7.50;99.90;;;;;;5105353;27;20358;-69
2023/12/13 02:27:57;;;;;;;;;;;7.50;99.90;;;;;;5107304;28;19913;-69
2023/12/13 02:30:23;;;;;;;;;;;7.50;99.90;;;;;;5113339;27;19919;-69
2023/12/13 02:32:49;;;;;;;;;;;7.50;99.90;;;;;;5118655;27;19918;-69
2023/12/13 02:35:16;;;;;;;;;;;7.50;99.90;;;;;;5114060;27;20430;-69
2023/12/13 02:37:49;;;;;;;;;;;7.50;99.90;;;;;;5105370;28;19920;-69
2023/12/13 02:40:18;;;;;;;;;;;7.50;99.90;;;;;;5103460;28;20752;-69
2023/12/13 02:42:43;;;;;;;;;;;7.50;99.90;;;;;;5105751;28;19912;-69
2023/12/13 02:45:10;;;;;;;;;;;7.50;99.90;;;;;;5105071;28;19950;-69
2023/12/13 02:47:38;;;;;;;;;;;7.50;99.90;;;;;;5110902;27;19923;-69
2023/12/13 02:50:06;;;;;;;;;;;7.50;99.90;;;;;;5116651;27;19916;-69
2023/12/13 02:52:31;;;;;;;;;;;7.50;99.90;;;;;;5126248;27;20446;-69
2023/12/13 02:54:57;;;;;;;;;;;7.50;99.90;;;;;;5125283;27;20002;-69
2023/12/13 02:57:22;;;;;;;;;;;7.50;99.90;;;;;;5105054;28;19920;-69
2023/12/13 02:59:48;;;;;;;;;;;7.50;99.90;;;;;;5105077;28;19947;-69
2023/12/13 03:02:13;;;;;;;;;;;7.50;99.90;;;;;;5103599;28;19912;-69
2023/12/13 03:04:39;;;;;;;;;;;7.50;99.90;;;;;;5105085;28;19919;-69
2023/12/13 03:07:04;;;;;;;;;;;7.50;99.90;;;;;;5104695;28;19922;-69
2023/12/13 03:09:30;;;;;;;;;;;7.50;99.90;;;;;;5105177;28;20001;-69
2023/12/13 03:11:55;;;;;;;;;;;7.50;99.90;;;;;;5105420;28;20369;-69
2023/12/13 03:14:21;;;;;;;;;;;7.50;99.90;;;;;;5104884;28;20346;-69
2023/12/13 03:16:46;;;;;;;;;;;7.50;99.90;;;;;;5104679;28;19916;-69
2023/12/13 03:19:12;;;;;;;;;;;7.50;99.90;;;;;;5106338;28;19923;-69
2023/12/13 03:21:37;;;;;;;;;;;7.50;99.90;;;;;;5104862;28;19919;-69
2023/12/13 03:24:03;;;;;;;;;;;7.50;99.90;;;;;;5104862;28;19912;-69
2023/12/13 03:26:29;;;;;;;;;;;7.50;99.90;;;;;;5104870;28;20236;-69
2023/12/13 03:28:54;;;;;;;;;;;7.50;99.90;;;;;;5103250;28;19916;-69
2023/12/13 03:31:20;;;;;;;;;;;7.50;99.90;;;;;;5104431;28;19919;-69
2023/12/13 03:33:45;;;;;;;;;;;7.50;99.90;;;;;;5104933;28;19916;-69
2023/12/13 03:36:14;;;;;;;;;;;7.50;99.90;;;;;;5104293;28;19972;-69
2023/12/13 03:38:40;;;;;;;;;;;7.50;99.90;;;;;;5113562;27;19912;-69
2023/12/13 03:41:06;;;;;;;;;;;7.50;99.90;;;;;;5121629;27;19935;-69
2023/12/13 03:43:31;;;;;;;;;;;7.50;99.90;;;;;;5105064;28;19912;-69
2023/12/13 03:45:57;;;;;;;;;;;7.50;99.90;;;;;;5104514;28;19912;-69
2023/12/13 03:48:22;;;;;;;;;;;7.50;99.90;;;;;;5108762;27;19908;-69
2023/12/13 03:50:48;;;;;;;;;;;7.50;99.90;;;;;;5114048;27;19943;-69
2023/12/13 03:53:14;;;;;;;;;;;7.50;99.90;;;;;;5104519;28;19919;-69
2023/12/13 03:55:39;;;;;;;;;;;7.50;99.90;;;;;;5102827;28;19911;-69
2023/12/13 03:58:05;;;;;;;;;;;7.50;99.90;;;;;;5103164;28;20364;-69
2023/12/13 04:00:31;;;;;;;;;;;7.50;99.90;;;;;;5104819;28;19931;-69
2023/12/13 04:02:57;;;;;;;;;;;7.50;99.90;;;;;;5107505;28;19951;-69
2023/12/13 04:05:22;;;;;;;;;;;7.50;99.90;;;;;;5107751;28;19925;-69
2023/12/13 04:07:48;;;;;;;;;;;7.50;99.90;;;;;;5116763;27;19912;-69
2023/12/13 04:10:13;;;;;;;;;;;7.50;99.90;;;;;;5107602;28;19912;-69
2023/12/13 04:12:39;;;;;;;;;;;7.50;99.90;;;;;;5106770;28;19919;-69
2023/12/13 04:15:05;;;;;;;;;;;7.50;99.90;;;;;;5107505;28;19919;-69
2023/12/13 04:17:30;;;;;;;;;;;7.50;99.90;;;;;;5107806;28;20364;-69
2023/12/13 04:19:58;;;;;;;;;;;7.50;99.90;;;;;;5108286;28;20397;-69
2023/12/13 04:22:23;;;;;;;;;;;7.50;99.90;;;;;;5098114;28;20026;-69
2023/12/13 04:24:49;;;;;;;;;;;7.50;99.90;;;;;;5106410;28;20538;-69
2023/12/13 04:27:15;;;;;;;;;;;7.50;99.90;;;;;;5107442;28;19912;-69
2023/12/13 04:29:40;;;;;;;;;;;7.50;99.90;;;;;;5107627;28;20063;-69
2023/12/13 04:32:06;;;;;;;;;;;7.50;99.90;;;;;;5105933;28;19994;-69
2023/12/13 04:34:31;;;;;;;;;;;7.50;99.90;;;;;;5107718;28;19911;-69
2023/12/13 04:36:57;;;;;;;;;;;7.50;99.90;;;;;;5115653;27;19921;-69
2023/12/13 04:39:22;;;;;;;;;;;7.50;99.90;;;;;;5115982;27;20345;-69
2023/12/13 04:41:48;;;;;;;;;;;7.50;99.90;;;;;;5107352;28;19920;-69
2023/12/13 04:44:13;;;;;;;;;;;7.50;99.90;;;;;;5107171;28;19912;-69
2023/12/13 04:46:39;;;;;;;;;;;7.50;99.90;;;;;;5105697;28;20451;-69
2023/12/13 04:49:05;;;;;;;;;;;7.50;99.90;;;;;;5107458;28;19916;-69
2023/12/13 04:51:30;;;;;;;;;;;7.50;99.90;;;;;;5107603;27;20301;-69
2023/12/13 04:53:57;;;;;;;;;;;7.50;99.90;;;;;;5124050;27;19911;-69
2023/12/13 04:56:23;;;;;;;;;;;7.50;99.90;;;;;;5127121;27;20295;-69
2023/12/13 04:58:49;;;;;;;;;;;7.50;99.90;;;;;;5117000;27;19918;-69
2023/12/13 05:01:14;;;;;;;;;;;7.50;99.90;;;;;;5124583;27;19918;-69
2023/12/13 05:03:40;;;;;;;;;;;7.50;99.90;;;;;;5115726;27;19934;-69
2023/12/13 05:06:05;;;;;;;;;;;7.50;99.90;;;;;;5106429;28;19912;-69
2023/12/13 05:08:33;;;;;;;;;;;7.50;99.90;;;;;;5105834;28;20467;-69
2023/12/13 05:10:59;;;;;;;;;;;7.50;99.90;;;;;;5107127;28;19918;-69
2023/12/13 05:13:27;;;;;;;;;;;7.50;99.90;;;;;;5098948;28;19912;-69
2023/12/13 05:15:53;;;;;;;;;;;7.50;99.90;;;;;;5106622;28;19911;-69
2023/12/13 05:18:18;;;;;;;;;;;7.50;99.90;;;;;;5126642;27;19915;-69
2023/12/13 05:20:45;;;;;;;;;;;7.50;99.90;;;;;;5116496;27;19918;-69
2023/12/13 05:23:10;;;;;;;;;;;7.50;99.90;;;;;;5126966;27;19912;-69
2023/12/13 05:25:38;;;;;;;;;;;7.50;99.90;;;;;;5126822;27;19919;-69
2023/12/13 05:28:04;;;;;;;;;;;7.50;99.90;;;;;;5113619;27;20515;-69
2023/12/13 05:30:29;;;;;;;;;;;7.60;99.90;;;;;;5106943;27;19927;-69
2023/12/13 05:32:55;;;;;;;;;;;7.50;99.90;;;;;;5107244;28;19918;-69
2023/12/13 05:35:20;;;;;;;;;;;7.50;99.90;;;;;;5106357;28;19920;-69
2023/12/13 05:37:46;;;;;;;;;;;7.50;99.90;;;;;;5106584;28;19916;-69
2023/12/13 05:40:12;;;;;;;;;;;7.60;99.90;;;;;;5106141;28;19912;-69
2023/12/13 05:42:38;;;;;;;;;;;7.50;99.90;;;;;;5111870;27;19912;-69
2023/12/13 05:45:04;;;;;;;;;;;7.50;99.90;;;;;;5117407;27;20279;-69
2023/12/13 05:47:29;;;;;;;;;;;7.50;99.90;;;;;;5114215;27;19935;-69
2023/12/13 05:49:55;;;;;;;;;;;7.50;99.90;;;;;;5108998;27;19915;-69
2023/12/13 05:52:20;;;;;;;;;;;7.60;99.90;;;;;;5114887;27;19922;-69
2023/12/13 05:54:46;;;;;;;;;;;7.50;99.90;;;;;;5106321;28;20326;-69
2023/12/13 05:57:11;;;;;;;;;;;7.50;99.90;;;;;;5105489;28;20376;-69
2023/12/13 05:59:37;;;;;;;;;;;7.50;99.90;;;;;;5105871;28;19957;-69
2023/12/13 06:02:03;;;;;;;;;;;7.60;99.90;;;;;;5105737;28;20074;-69
2023/12/13 06:04:28;;;;;;;;;;;7.50;99.90;;;;;;5106236;28;19979;-69
2023/12/13 06:06:54;;;;;;;;;;;7.50;99.90;;;;;;5113311;27;19911;-69
2023/12/13 06:09:20;;;;;;;;;;;7.50;99.90;;;;;;5106380;27;19916;-69
2023/12/13 06:11:46;;;;;;;;;;;7.60;99.90;;;;;;5114396;27;19912;-69
2023/12/13 06:14:11;;;;;;;;;;;7.50;99.90;;;;;;5105386;28;19918;-69
2023/12/13 06:16:37;;;;;;;;;;;7.50;99.90;;;;;;5118873;27;19922;-69
2023/12/13 06:19:02;;;;;;;;;;;7.50;99.90;;;;;;5108699;27;19919;-69
2023/12/13 06:21:28;;;;;;;;;;;7.50;99.90;;;;;;5105654;28;19908;-69
2023/12/13 06:23:53;;;;;;;;;;;7.60;99.90;;;;;;5105551;28;19912;-68
2023/12/13 06:26:19;;;;;;;;;;;7.50;99.90;;;;;;5104721;28;19912;-69
2023/12/13 06:28:44;;;;;;;;;;;7.50;99.90;;;;;;5103632;28;19927;-69
2023/12/13 06:31:10;;;;;;;;;;;7.60;99.90;;;;;;5104862;28;20325;-69
2023/12/13 06:33:35;;;;;;;;;;;7.50;99.90;;;;;;5105632;28;19951;-69
2023/12/13 06:36:01;;;;;;;;;;;7.50;99.90;;;;;;5111909;27;19911;-69
2023/12/13 06:38:26;;;;;;;;;;;7.50;99.90;;;;;;5126161;27;20371;-69
2023/12/13 06:40:52;;;;;;;;;;;7.50;99.90;;;;;;5116958;27;20008;-69
2023/12/13 06:43:17;;;;;;;;;;;7.50;99.90;;;;;;5105109;27;20373;-69
2023/12/13 06:45:42;;;;;;;;;;;7.60;99.90;;;;;;5104782;28;19908;-69
2023/12/13 06:48:09;;;;;;;;;;;7.60;99.90;;;;;;5105155;28;19911;-69
2023/12/13 06:50:35;;;;;;;;;;;7.60;99.90;;;;;;5105364;28;19911;-69
2023/12/13 06:53:00;;;;;;;;;;;7.60;99.90;;;;;;5104288;28;20378;-69
2023/12/13 06:55:26;;;;;;;;;;;7.60;99.90;;;;;;5113177;27;19912;-69
2023/12/13 06:57:51;;;;;;;;;;;7.60;99.90;;;;;;5118070;27;19922;-69
2023/12/13 07:00:21;;;;;;;;;;;7.60;99.90;;;;;;5111205;28;20364;-69
2023/12/13 07:02:46;;;;;;;;;;;7.50;99.90;;;;;;5112001;28;19925;-69
2023/12/13 07:05:12;;;;;;;;;;;7.60;99.90;;;;;;5112969;27;19915;-69
2023/12/13 07:07:38;;;;;;;;;;;7.60;99.90;;;;;;5113421;27;19922;-69
2023/12/13 07:10:03;;;;;;;;;;;7.60;99.90;;;;;;5105051;28;20549;-69
2023/12/13 07:12:29;;;;;;;;;;;7.50;99.90;;;;;;5105877;27;19944;-69
2023/12/13 07:14:57;;;;;;;;;;;7.60;99.90;;;;;;5104215;28;19923;-69
2023/12/13 07:17:23;;;;;;;;;;;7.50;99.90;;;;;;5103925;28;19916;-69
2023/12/13 07:19:49;;;;;;;;;;;7.60;99.90;;;;;;5104852;28;19941;-68
2023/12/13 07:22:15;;;;;;;;;;;7.60;99.90;;;;;;5104224;28;20265;-69
2023/12/13 07:24:41;;;;;;;;;;;7.60;99.90;;;;;;5104510;28;19912;-69
2023/12/13 07:27:06;;;;;;;;;;;7.50;99.90;;;;;;5113083;28;20513;-69
2023/12/13 07:29:33;;;;;;;;;;;7.60;99.90;;;;;;5113509;27;19952;-69
2023/12/13 07:31:58;;;;;;;;;;;7.60;99.90;;;;;;5113043;28;20676;-69
2023/12/13 07:34:24;;;;;;;;;;;7.60;99.90;;;;;;5115641;27;19911;-69
2023/12/13 07:36:51;;;;;;;;;;;7.60;99.90;;;;;;5127775;27;19958;-69
2023/12/13 07:39:16;;;;;;;;;;;7.50;99.90;;;;;;5109926;27;19922;-69
2023/12/13 07:41:42;;;;;;;;;;;7.50;99.90;;;;;;5108588;28;19912;-69
2023/12/13 07:44:07;;;;;;;;;;;7.50;99.90;;;;;;5115345;27;20273;-69
2023/12/13 07:46:33;;;;;;;;;;;7.50;99.90;;;;;;5108065;28;19908;-69
2023/12/13 07:49:03;;;;;;;;;;;7.50;99.90;;;;;;5108507;28;19950;-69
2023/12/13 07:51:34;;;;;;;;;;;7.50;99.90;;;;;;5100238;28;19919;-69
2023/12/13 07:54:01;;;;;;;;;;;7.50;99.90;;;;;;5108486;28;19911;-69
2023/12/13 07:56:28;;;;;;;;;;;7.50;99.90;;;;;;5108586;27;20486;-69
2023/12/13 07:58:54;;;;;;;;;;;7.50;99.90;;;;;;5111896;27;19912;-69
2023/12/13 08:01:19;;;;;;;;;;;7.50;99.90;;;;;;5106030;28;19916;-68
2023/12/13 08:03:45;;;;;;;;;;;7.50;99.90;;;;;;5107983;27;19956;-69
2023/12/13 08:06:12;;;;;;;;;;;7.50;99.90;;;;;;5107177;28;19930;-69
2023/12/13 08:08:39;;;;;;;;;;;7.60;99.90;;;;;;5107659;28;19961;-69
2023/12/13 08:11:05;;;;;;;;;;;7.50;99.90;;;;;;5105863;28;20010;-69
2023/12/13 08:13:30;;;;;;;;;;;7.50;99.90;;;;;;5108346;28;20014;-69
2023/12/13 08:15:56;;;;;;;;;;;7.60;99.90;;;;;;5107457;28;19939;-69
2023/12/13 08:18:21;;;;;;;;;;;7.60;99.90;;;;;;5124797;27;20034;-69
2023/12/13 08:20:46;;;;;;;;;;;7.60;99.90;;;;;;5116358;27;20340;-69
2023/12/13 08:23:12;;;;;;;;;;;7.50;99.90;;;;;;5116107;27;19915;-69
2023/12/13 08:25:38;;;;;;;;;;;7.60;99.90;;;;;;5107500;28;19907;-69
2023/12/13 08:28:03;;;;;;;;;;;7.60;99.90;;;;;;5107169;28;19955;-69
2023/12/13 08:30:29;;;;;;;;;;;7.60;99.90;;;;;;5107359;28;19919;-69
2023/12/13 08:32:54;;;;;;;;;;;7.60;99.90;;;;;;5107254;28;19915;-69
2023/12/13 08:35:20;;;;;;;;;;;7.60;99.90;;;;;;5106596;27;20343;-69
2023/12/13 08:37:45;;;;;;;;;;;7.60;99.90;;;;;;5107007;28;19916;-69
2023/12/13 08:40:11;;;;;;;;;;;7.60;99.90;;;;;;5106892;28;19912;-69
2023/12/13 08:42:37;;;;;;;;;;;7.60;99.90;;;;;;5107254;28;19919;-69
2023/12/13 08:45:03;;;;;;;;;;;7.60;99.90;;;;;;5105329;28;19965;-69
2023/12/13 08:47:29;;;;;;;;;;;7.60;99.90;;;;;;5106104;28;20416;-69
2023/12/13 08:49:54;;;;;;;;;;;7.60;99.90;;;;;;5107287;27;20032;-69
2023/12/13 08:52:20;;;;;;;;;;;7.60;99.90;;;;;;5109426;27;19961;-69
2023/12/13 08:54:46;;;;;;;;;;;7.60;99.90;;;;;;5112568;27;19933;-69
2023/12/13 08:57:11;;;;;;;;;;;7.60;99.90;;;;;;5106669;28;20371;-69
2023/12/13 08:59:37;;;;;;;;;;;7.60;99.90;;;;;;5107356;28;19919;-69
2023/12/13 09:02:03;;;;;;;;;;;7.60;99.90;;;;;;5115312;27;19912;-69
2023/12/13 09:04:28;;;;;;;;;;;7.60;99.90;;;;;;5107316;28;19926;-69
2023/12/13 09:06:54;;;;;;;;;;;7.70;99.90;;;;;;5106959;27;20334;-69
2023/12/13 09:09:19;;;;;;;;;;;7.70;99.90;;;;;;5109126;27;19912;-69
2023/12/13 09:11:47;;;;;;;;;;;7.70;99.90;;;;;;5121328;27;19994;-69
2023/12/13 09:14:12;;;;;;;;;;;7.70;99.90;;;;;;5116438;27;19920;-69
2023/12/13 09:16:39;;;;;;;;;;;7.70;99.90;;;;;;5127344;27;20503;-69
2023/12/13 09:19:05;;;;;;;;;;;7.80;99.90;;;;;;5109885;27;20027;-69
2023/12/13 09:21:30;;;;;;;;;;;7.70;99.90;;;;;;5111723;27;20404;-69
2023/12/13 09:23:56;;;;;;;;;;;7.80;99.90;;;;;;5108485;27;19911;-69
2023/12/13 09:26:21;;;;;;;;;;;7.80;99.90;;;;;;5099618;27;19919;-69
2023/12/13 09:28:47;;;;;;;;;;;7.80;99.90;;;;;;5113614;27;19940;-69
2023/12/13 09:31:12;;;;;;;;;;;7.80;99.90;;;;;;5115234;27;19915;-69
2023/12/13 09:33:39;;;;;;;;;;;7.80;99.90;;;;;;5126789;27;19908;-69
2023/12/13 09:36:05;;;;;;;;;;;7.90;99.90;;;;;;5100106;27;19955;-69
2023/12/13 09:38:31;;;;;;;;;;;7.80;99.90;;;;;;5114333;27;19996;-69
2023/12/13 09:40:57;;;;;;;;;;;7.90;99.90;;;;;;5105485;28;19927;-69
2023/12/13 09:43:23;;;;;;;;;;;7.90;99.90;;;;;;5094400;28;21064;-69
2023/12/13 09:45:53;;;;;;;;;;;7.90;99.90;;;;;;5084980;28;20381;-69
2023/12/13 09:48:22;;;;;;;;;;;7.90;99.90;;;;;;5084879;28;19912;-69
2023/12/13 09:50:51;;;;;;;;;;;7.90;99.90;;;;;;5114103;27;19907;-69
2023/12/13 09:53:17;;;;;;;;;;;7.90;99.90;;;;;;5108622;27;20040;-69
2023/12/13 09:55:43;;;;;;;;;;;8.00;99.90;;;;;;5102412;27;19930;-69
2023/12/13 09:58:09;;;;;;;;;;;8.00;99.90;;;;;;5116890;27;20375;-69
2023/12/13 10:00:35;;;;;;;;;;;8.00;99.90;;;;;;5110910;27;19952;-69
2023/12/13 10:03:00;;;;;;;;;;;8.00;99.90;;;;;;5113864;27;19911;-69
2023/12/13 10:05:26;;;;;;;;;;;8.00;99.90;;;;;;5104682;27;20387;-69
2023/12/13 10:07:59;;;;;;;;;;;8.10;99.90;;;;;;5089913;28;20755;-69
2023/12/13 10:10:24;;;;;;;;;;;8.10;99.90;;;;;;5092875;28;20396;-69
2023/12/13 10:12:51;;;;;;;;;;;8.10;99.90;;;;;;5100205;27;20407;-69
2023/12/13 10:15:17;;;;;;;;;;;8.10;99.90;;;;;;5094309;28;20298;-68
2023/12/13 10:17:43;;;;;;;;;;;8.10;99.90;;;;;;5110546;27;20010;-69
2023/12/13 10:20:08;;;;;;;;;;;8.10;99.90;;;;;;5100678;27;20002;-69
2023/12/13 10:22:36;;;;;;;;;;;8.20;99.90;;;;;;5111948;27;20014;-69
2023/12/13 10:25:02;;;;;;;;;;;8.20;99.90;;;;;;5104813;27;20356;-69
2023/12/13 10:27:27;;;;;;;;;;;8.20;99.90;;;;;;5124546;27;20241;-69
2023/12/13 10:29:53;;;;;;;;;;;8.20;99.90;;;;;;5102688;27;19934;-69
2023/12/13 10:32:19;;;;;;;;;;;8.30;99.90;;;;;;5104196;28;19972;-69
2023/12/13 10:34:44;;;;;;;;;;;8.30;99.90;;;;;;5104559;28;19916;-69
2023/12/13 10:37:12;;;;;;;;;;;8.30;99.90;;;;;;5112679;27;19985;-69
2023/12/13 10:39:39;;;;;;;;;;;8.30;99.90;;;;;;5117908;27;20419;-69
2023/12/13 10:42:05;;;;;;;;;;;8.40;99.90;;;;;;5125204;27;19912;-69
2023/12/13 10:44:32;;;;;;;;;;;8.40;99.90;;;;;;5112918;27;19994;-69
2023/12/13 10:46:59;;;;;;;;;;;8.40;99.90;;;;;;5104203;28;19932;-69
2023/12/13 10:49:24;;;;;;;;;;;8.40;99.90;;;;;;5104153;28;20636;-69
2023/12/13 10:51:51;;;;;;;;;;;8.40;99.90;;;;;;5111113;27;19984;-69
2023/12/13 10:54:17;;;;;;;;;;;8.40;99.90;;;;;;5114682;27;19911;-69
2023/12/13 10:56:43;;;;;;;;;;;8.40;99.90;;;;;;5118186;27;19930;-69
2023/12/13 10:59:09;;;;;;;;;;;8.40;99.90;;;;;;5103202;28;20000;-69
2023/12/13 11:01:35;;;;;;;;;;;8.40;99.90;;;;;;5124870;27;19976;-69
2023/12/13 11:04:04;;;;;;;;;;;8.40;99.90;;;;;;5108301;27;19912;-69
2023/12/13 11:06:30;;;;;;;;;;;8.40;99.90;;;;;;5107833;27;19990;-69
2023/12/13 11:08:56;;;;;;;;;;;8.40;99.90;;;;;;5109327;27;20034;-69
2023/12/13 11:11:26;;;;;;;;;;;8.50;99.90;;;;;;5106447;28;19987;-69
2023/12/13 11:13:52;;;;;;;;;;;8.50;99.90;;;;;;5108777;28;19912;-69
2023/12/13 11:16:21;;;;;;;;;;;8.40;99.90;;;;;;5119887;27;20613;-69
2023/12/13 11:18:48;;;;;;;;;;;8.50;99.90;;;;;;5101629;27;19916;-69
2023/12/13 11:21:21;;;;;;;;;;;8.50;99.90;;;;;;5105808;28;20557;-69
2023/12/13 11:23:47;;;;;;;;;;;8.50;99.90;;;;;;5108119;28;19994;-69
2023/12/13 11:26:14;;;;;;;;;;;8.50;99.90;;;;;;5108892;27;20088;-69
2023/12/13 11:28:40;;;;;;;;;;;8.50;99.90;;;;;;5113353;27;19922;-69
2023/12/13 11:31:10;;;;;;;;;;;8.50;99.90;;;;;;5107949;28;20344;-69
2023/12/13 11:33:35;;;;;;;;;;;8.50;99.90;;;;;;5120542;27;20005;-69
2023/12/13 11:36:01;;;;;;;;;;;8.50;99.90;;;;;;5119749;27;20037;-69
2023/12/13 11:38:26;;;;;;;;;;;8.50;99.90;;;;;;5100103;27;20018;-69
2023/12/13 11:40:52;;;;;;;;;;;8.50;99.90;;;;;;5111329;27;19915;-69
2023/12/13 11:43:17;;;;;;;;;;;8.60;99.90;;;;;;5104226;27;19975;-69
2023/12/13 11:45:46;;;;;;;;;;;8.60;99.90;;;;;;5113281;27;19912;-69
2023/12/13 11:48:12;;;;;;;;;;;8.60;99.90;;;;;;5108456;27;20424;-69
2023/12/13 11:50:37;;;;;;;;;;;8.60;99.90;;;;;;5103397;27;19916;-69
2023/12/13 11:53:03;;;;;;;;;;;8.60;99.90;;;;;;5112583;27;19919;-69
2023/12/13 11:55:29;;;;;;;;;;;8.70;99.90;;;;;;5110493;27;20523;-69
2023/12/13 11:57:58;;;;;;;;;;;8.70;99.90;;;;;;5111144;27;19916;-69
2023/12/13 12:00:24;;;;;;;;;;;8.70;99.90;;;;;;5113211;27;20006;-69
2023/12/13 12:02:53;;;;;;;;;;;8.70;99.90;;;;;;5099839;28;19999;-69
2023/12/13 12:05:19;;;;;;;;;;;8.70;99.90;;;;;;5086562;28;19914;-69
2023/12/13 12:07:54;;;;;;;;;;;8.70;99.90;;;;;;5115132;27;19911;-69
2023/12/13 12:10:19;;;;;;;;;;;8.70;99.90;;;;;;5089639;27;19954;-69
2023/12/13 12:12:48;;;;;;;;;;;8.70;99.90;;;;;;5091301;28;20415;-69
2023/12/13 12:15:15;;;;;;;;;;;8.70;99.90;;;;;;5103919;28;20336;-69
2023/12/13 12:17:41;;;;;;;;;;;8.70;99.90;;;;;;5105703;28;19969;-69
2023/12/13 12:20:07;;;;;;;;;;;8.70;99.90;;;;;;5105291;27;19922;-69
2023/12/13 12:22:36;;;;;;;;;;;8.70;99.90;;;;;;5094662;27;19920;-69
2023/12/13 12:25:01;;;;;;;;;;;8.60;99.90;;;;;;5103551;28;20002;-69
2023/12/13 12:27:27;;;;;;;;;;;8.60;99.90;;;;;;5105095;28;20002;-69
2023/12/13 12:29:53;;;;;;;;;;;8.60;99.90;;;;;;5092839;28;20031;-69
2023/12/13 12:32:19;;;;;;;;;;;8.60;99.90;;;;;;5094084;27;19911;-69
2023/12/13 12:34:47;;;;;;;;;;;8.60;99.90;;;;;;5096730;28;19912;-69
2023/12/13 12:37:14;;;;;;;;;;;8.60;99.90;;;;;;5104617;27;19916;-69
2023/12/13 12:39:40;;;;;;;;;;;8.60;99.90;;;;;;5113697;27;19935;-69
2023/12/13 12:42:06;;;;;;;;;;;8.60;99.90;;;;;;5089706;28;20249;-69
2023/12/13 12:44:31;;;;;;;;;;;8.60;99.90;;;;;;5084873;28;19911;-69
2023/12/13 12:46:57;;;;;;;;;;;8.60;99.90;;;;;;5100121;28;19911;-69
2023/12/13 12:49:22;;;;;;;;;;;8.60;99.90;;;;;;5089393;28;19962;-69
2023/12/13 12:51:48;;;;;;;;;;;8.50;99.90;;;;;;5098862;28;19908;-69
2023/12/13 12:54:14;;;;;;;;;;;8.50;99.90;;;;;;5104699;27;19912;-69
2023/12/13 12:56:39;;;;;;;;;;;8.50;99.90;;;;;;5113153;27;20609;-69
2023/12/13 12:59:05;;;;;;;;;;;8.50;99.90;;;;;;5090912;28;19912;-69
2023/12/13 13:01:31;;;;;;;;;;;8.50;99.90;;;;;;5092087;28;19912;-69
2023/12/13 13:03:57;;;;;;;;;;;8.50;99.90;;;;;;5094295;27;19951;-69
2023/12/13 13:06:23;;;;;;;;;;;8.50;99.90;;;;;;5093767;28;19923;-69
2023/12/13 13:08:49;;;;;;;;;;;8.50;99.90;;;;;;5085919;28;19912;-69
2023/12/13 13:11:15;;;;;;;;;;;8.50;99.90;;;;;;5102152;28;19911;-69
2023/12/13 13:13:40;;;;;;;;;;;8.50;99.90;;;;;;5101525;27;19986;-69
2023/12/13 13:16:06;;;;;;;;;;;8.50;99.90;;;;;;5102447;28;19981;-69
2023/12/13 13:18:32;;;;;;;;;;;8.50;99.90;;;;;;5106118;27;19915;-69
2023/12/13 13:20:58;;;;;;;;;;;8.50;99.90;;;;;;5105532;28;19965;-69
2023/12/13 13:23:24;;;;;;;;;;;8.50;99.90;;;;;;5094768;27;19908;-69
2023/12/13 13:25:49;;;;;;;;;;;8.50;99.90;;;;;;5096737;28;19912;-69
2023/12/13 13:28:15;;;;;;;;;;;8.50;99.90;;;;;;5090057;28;20028;-69
2023/12/13 13:30:41;;;;;;;;;;;8.50;99.90;;;;;;5099353;28;19919;-69
2023/12/13 13:33:06;;;;;;;;;;;8.50;99.90;;;;;;5103944;28;19916;-69
2023/12/13 13:35:32;;;;;;;;;;;8.60;99.90;;;;;;5096249;28;20011;-69
2023/12/13 13:37:57;;;;;;;;;;;8.60;99.90;;;;;;5098314;27;20579;-69
2023/12/13 13:40:23;;;;;;;;;;;8.60;99.90;;;;;;5103545;27;20539;-69
2023/12/13 13:42:51;;;;;;;;;;;8.60;99.90;;;;;;5101980;28;20217;-69
2023/12/13 13:45:17;;;;;;;;;;;8.60;99.90;;;;;;5100827;28;19919;-69
2023/12/13 13:47:42;;;;;;;;;;;8.60;99.90;;;;;;5103128;27;19916;-69
2023/12/13 13:50:09;;;;;;;;;;;8.70;99.90;;;;;;5106172;27;20440;-69
2023/12/13 13:52:35;;;;;;;;;;;8.70;99.90;;;;;;5101675;28;20732;-69
2023/12/13 13:55:00;;;;;;;;;;;8.70;99.90;;;;;;5093564;27;19912;-69
2023/12/13 13:57:26;;;;;;;;;;;8.70;99.90;;;;;;5112159;27;19915;-69
2023/12/13 13:59:51;;;;;;;;;;;8.70;99.90;;;;;;5092058;28;19999;-69
2023/12/13 14:02:24;;;;;;;;;;;8.70;99.90;;;;;;5091166;28;19962;-69
2023/12/13 14:04:49;;;;;;;;;;;8.70;99.90;;;;;;5090829;28;20014;-69
2023/12/13 14:07:15;;;;;;;;;;;8.70;99.90;;;;;;5085329;28;20420;-69
2023/12/13 14:09:40;;;;;;;;;;;8.70;99.90;;;;;;5089554;27;20017;-69
2023/12/13 14:12:06;;;;;;;;;;;8.70;99.90;;;;;;5105103;28;19912;-69
2023/12/13 14:14:32;;;;;;;;;;;8.70;99.90;;;;;;5087621;28;19911;-69
2023/12/13 14:16:57;;;;;;;;;;;8.70;99.90;;;;;;5097648;28;20006;-69
2023/12/13 14:19:23;;;;;;;;;;;8.70;99.90;;;;;;5086680;28;20310;-69
2023/12/13 14:21:48;;;;;;;;;;;8.70;99.90;;;;;;5103905;27;19955;-69
2023/12/13 14:24:14;;;;;;;;;;;8.70;99.90;;;;;;5084258;28;20318;-69